Time;durP1;ratioP1;P1;durP2;ratioP2;P2;SDS_P1;SDS_P2;PMS_P1;PMS_P2;Temp;Humidity;BMP_temperature;BMP_pressure;BME280_temperature;BME280_humidity;BME280_pressure;Samples;Min_cycle;Max_cycle;Signal;HPM_P1;HPM_P2
2023/10/06 00:02:35;;;;;;;8.63;3.72;;;10.60;99.90;;;;;;7295058;32;20121;-55
2023/10/06 00:06:37;;;;;;;8.73;3.50;;;10.60;99.90;;;;;;7301142;32;20135;-56
2023/10/06 00:10:44;;;;;;;8.52;3.45;;;10.70;99.90;;;;;;7301137;32;20285;-55
2023/10/06 00:14:48;;;;;;;;;;;10.60;99.90;;;;;;7297311;32;20108;-55
2023/10/06 00:18:52;;;;;;;11.40;3.67;;;10.70;99.90;;;;;;7293890;32;20007;-55
2023/10/06 00:23:01;;;;;;;10.00;4.37;;;10.60;99.90;;;;;;7304188;32;20167;-56
2023/10/06 00:27:03;;;;;;;8.02;3.87;;;10.70;99.90;;;;;;7299771;32;20222;-55
2023/10/06 00:31:08;;;;;;;9.38;4.30;;;10.70;99.90;;;;;;7300879;32;20211;-55
2023/10/06 00:35:16;;;;;;;8.50;4.03;;;10.60;99.90;;;;;;7298015;32;20183;-57
2023/10/06 00:39:23;;;;;;;10.32;3.83;;;10.70;99.90;;;;;;7299003;32;20113;-56
2023/10/06 00:43:34;;;;;;;11.93;5.00;;;10.70;99.90;;;;;;7299470;32;20198;-56
2023/10/06 00:47:38;;;;;;;8.38;4.30;;;10.70;99.90;;;;;;7295686;32;20108;-56
2023/10/06 00:51:41;;;;;;;13.48;4.45;;;10.70;99.90;;;;;;7303213;32;20505;-56
2023/10/06 00:55:44;;;;;;;7.87;4.03;;;10.70;99.90;;;;;;7302442;32;20199;-55
2023/10/06 00:59:46;;;;;;;9.00;4.28;;;10.70;99.90;;;;;;7301810;32;20165;-56
2023/10/06 01:04:00;;;;;;;12.52;3.95;;;10.70;99.90;;;;;;7296436;32;20176;-56
2023/10/06 01:08:05;;;;;;;8.75;4.35;;;10.80;99.90;;;;;;7301669;32;20276;-55
2023/10/06 01:12:11;;;;;;;9.50;4.47;;;10.70;99.90;;;;;;7301394;32;20167;-56
2023/10/06 01:16:15;;;;;;;8.65;4.12;;;10.80;99.90;;;;;;7298474;32;20498;-55
2023/10/06 01:20:41;;;;;;;10.50;4.22;;;10.70;99.90;;;;;;7300833;32;20120;-55
2023/10/06 01:24:43;;;;;;;9.05;4.22;;;10.70;99.90;;;;;;7290369;32;20187;-56
2023/10/06 01:28:45;;;;;;;10.57;4.20;;;10.80;99.90;;;;;;7300723;32;20203;-55
2023/10/06 01:32:50;;;;;;;7.60;4.25;;;10.80;99.90;;;;;;7297836;32;20142;-55
2023/10/06 01:36:53;;;;;;;12.30;4.18;;;10.80;99.90;;;;;;7289522;32;20302;-55
2023/10/06 01:40:56;;;;;;;9.90;4.57;;;10.70;99.90;;;;;;7301235;32;20285;-55
2023/10/06 01:45:13;;;;;;;9.27;4.37;;;10.90;99.90;;;;;;7295529;32;20530;-54
2023/10/06 01:49:15;;;;;;;9.10;4.28;;;10.80;99.90;;;;;;7301528;32;20847;-56
2023/10/06 01:53:20;;;;;;;10.60;4.28;;;10.80;99.90;;;;;;7298501;32;20551;-54
2023/10/06 01:57:24;;;;;;;10.85;4.60;;;10.80;99.90;;;;;;7299836;32;20521;-55
2023/10/06 02:01:26;;;;;;;10.07;4.28;;;10.80;99.90;;;;;;7301672;32;20190;-55
2023/10/06 02:05:28;;;;;;;7.70;4.03;;;10.80;99.90;;;;;;7295640;32;20165;-55
2023/10/06 02:09:30;;;;;;;9.60;3.72;;;10.80;99.90;;;;;;7300992;32;20104;-55
2023/10/06 02:13:31;;;;;;;8.07;3.97;;;10.80;99.90;;;;;;7301303;32;20112;-55
2023/10/06 02:17:34;;;;;;;9.50;4.00;;;10.80;99.90;;;;;;7302231;32;20096;-55
2023/10/06 02:21:44;;;;;;;6.40;3.37;;;10.80;99.90;;;;;;7294407;32;20254;-55
2023/10/06 02:25:46;;;;;;;8.63;3.83;;;10.80;99.90;;;;;;7295871;32;20131;-55
2023/10/06 02:29:49;;;;;;;8.13;3.87;;;10.80;99.90;;;;;;7301665;32;20104;-58
2023/10/06 02:33:51;;;;;;;7.07;3.72;;;10.80;99.90;;;;;;7298027;32;20297;-55
2023/10/06 02:37:57;;;;;;;7.90;3.53;;;10.80;99.90;;;;;;7298839;32;20139;-57
2023/10/06 02:42:02;;;;;;;8.45;3.92;;;10.80;99.90;;;;;;7296543;32;20439;-55
2023/10/06 02:46:08;;;;;;;18.05;3.58;;;10.70;99.90;;;;;;7292604;32;20178;-55
2023/10/06 02:50:19;;;;;;;11.27;4.20;;;10.70;99.90;;;;;;7298285;32;20644;-56
2023/10/06 02:54:22;;;;;;;9.77;3.95;;;10.70;99.90;;;;;;7298984;32;20193;-56
2023/10/06 02:58:30;;;;;;;6.75;3.12;;;10.70;99.90;;;;;;7298215;32;20172;-55
2023/10/06 03:02:34;;;;;;;5.68;3.37;;;10.60;99.90;;;;;;7298907;32;20138;-56
2023/10/06 03:06:36;;;;;;;13.00;3.65;;;10.60;99.90;;;;;;7300061;32;20120;-55
2023/10/06 03:10:45;;;;;;;6.20;3.47;;;10.80;99.90;;;;;;7296190;32;20111;-56
2023/10/06 03:14:46;;;;;;;6.87;3.75;;;10.60;99.90;;;;;;7295636;32;20532;-55
2023/10/06 03:18:52;;;;;;;6.32;3.55;;;10.60;99.90;;;;;;7298831;32;20120;-55
2023/10/06 03:22:55;;;;;;;8.20;3.60;;;10.60;99.90;;;;;;7296286;32;20130;-55
2023/10/06 03:26:58;;;;;;;10.82;3.47;;;10.80;99.90;;;;;;7291452;32;20115;-55
2023/10/06 03:31:04;;;;;;;10.93;3.58;;;10.70;99.90;;;;;;7298393;32;20597;-57
2023/10/06 03:35:23;;;;;;;7.32;3.40;;;10.70;99.90;;;;;;7299708;32;20331;-56
2023/10/06 03:39:30;;;;;;;6.68;3.50;;;10.50;99.90;;;;;;7301559;32;20722;-56
2023/10/06 03:43:49;;;;;;;10.57;4.28;;;10.50;99.90;;;;;;7300106;32;20529;-56
2023/10/06 03:47:51;;;;;;;6.30;3.35;;;10.60;99.90;;;;;;7295646;32;20550;-57
2023/10/06 03:51:55;;;;;;;8.80;3.83;;;10.50;99.90;;;;;;7297785;32;20108;-55
2023/10/06 03:55:57;;;;;;;8.82;3.97;;;10.50;99.90;;;;;;7303364;32;20115;-56
2023/10/06 03:59:59;;;;;;;7.60;4.05;;;10.60;99.90;;;;;;7300882;32;20230;-56
2023/10/06 04:04:01;;;;;;;8.88;3.62;;;10.60;99.90;;;;;;7295046;32;20120;-56
2023/10/06 04:08:13;;;;;;;6.87;3.42;;;10.50;99.90;;;;;;7304572;32;20165;-56
2023/10/06 04:12:18;;;;;;;7.28;3.20;;;10.50;99.90;;;;;;7305901;32;20845;-55
2023/10/06 04:16:22;;;;;;;7.87;3.85;;;10.50;99.90;;;;;;7298431;32;20829;-56
2023/10/06 04:20:26;;;;;;;8.35;3.67;;;10.60;99.90;;;;;;7300693;32;20586;-56
2023/10/06 04:24:28;;;;;;;8.32;3.50;;;10.60;99.90;;;;;;7301699;32;20142;-55
2023/10/06 04:28:29;;;;;;;8.30;4.03;;;10.50;99.90;;;;;;7301400;32;20108;-56
2023/10/06 04:32:31;;;;;;;10.23;3.78;;;10.50;99.90;;;;;;7301397;32;20132;-56
2023/10/06 04:36:33;;;;;;;9.07;3.17;;;10.40;99.90;;;;;;7302499;32;20107;-56
2023/10/06 04:40:35;;;;;;;8.98;3.72;;;10.40;99.90;;;;;;7297159;32;20752;-55
2023/10/06 04:44:37;;;;;;;6.07;3.20;;;10.40;99.90;;;;;;7303639;32;20584;-56
2023/10/06 04:48:39;;;;;;;10.32;3.78;;;10.40;99.90;;;;;;7299713;32;20123;-56
2023/10/06 04:52:44;;;;;;;7.18;3.55;;;10.30;99.90;;;;;;7296993;32;20213;-57
2023/10/06 04:56:48;;;;;;;11.18;3.75;;;10.30;99.90;;;;;;7301203;32;20116;-55
2023/10/06 05:00:59;;;;;;;8.55;4.10;;;10.30;99.90;;;;;;7300116;32;20213;-54
2023/10/06 05:05:01;;;;;;;7.55;3.33;;;10.30;99.90;;;;;;7293954;32;20143;-56
2023/10/06 05:09:03;;;;;;;11.63;3.72;;;10.30;99.90;;;;;;7295597;32;20200;-57
2023/10/06 05:13:06;;;;;;;5.45;3.35;;;10.30;99.90;;;;;;7293680;32;20489;-56
2023/10/06 05:17:08;;;;;;;10.07;4.18;;;10.30;99.90;;;;;;7295433;32;20257;-55
2023/10/06 05:21:11;;;;;;;9.25;3.97;;;10.30;99.90;;;;;;7302270;32;20130;-56
2023/10/06 05:25:13;;;;;;;8.55;3.58;;;10.30;99.90;;;;;;7293261;32;20552;-56
2023/10/06 05:29:15;;;;;;;10.10;4.00;;;10.20;99.90;;;;;;7293798;32;20229;-55
2023/10/06 05:33:17;;;;;;;8.70;3.87;;;10.30;99.90;;;;;;7298811;32;20147;-56
2023/10/06 05:37:18;;;;;;;13.23;7.30;;;10.20;99.90;;;;;;7300704;32;20108;-56
2023/10/06 05:41:21;;;;;;;8.88;4.20;;;10.30;99.90;;;;;;7297379;32;20134;-56
2023/10/06 05:45:23;;;;;;;9.85;4.30;;;10.40;99.90;;;;;;7300768;32;20116;-57
2023/10/06 05:49:25;;;;;;;7.97;3.95;;;10.40;99.90;;;;;;7296879;32;20274;-57
2023/10/06 05:53:30;;;;;;;9.23;4.15;;;10.30;99.90;;;;;;7292589;32;20111;-57
2023/10/06 05:57:32;;;;;;;8.80;5.03;;;10.30;99.90;;;;;;7299424;32;20179;-57
2023/10/06 06:01:34;;;;;;;11.25;4.25;;;10.30;99.90;;;;;;7292791;32;20198;-57
2023/10/06 06:05:38;;;;;;;10.57;3.78;;;10.40;99.90;;;;;;7299282;32;20111;-56
2023/10/06 06:09:41;;;;;;;7.43;3.80;;;10.50;99.90;;;;;;7296166;32;20167;-57
2023/10/06 06:13:42;;;;;;;12.35;4.22;;;10.50;99.90;;;;;;7292842;32;20125;-56
2023/10/06 06:17:44;;;;;;;6.40;3.55;;;10.60;99.90;;;;;;7299480;32;20510;-56
2023/10/06 06:21:46;;;;;;;8.68;4.32;;;10.70;99.90;;;;;;7295610;32;20140;-57
2023/10/06 06:25:48;;;;;;;7.45;4.00;;;10.70;99.90;;;;;;7297535;32;20838;-57
2023/10/06 06:29:50;;;;;;;10.73;3.92;;;10.70;99.90;;;;;;7293812;32;20142;-57
2023/10/06 06:33:56;;;;;;;6.70;4.35;;;10.80;99.90;;;;;;7300183;32;20586;-56
2023/10/06 06:38:01;;;;;;;11.50;4.45;;;11.00;99.90;;;;;;7297989;32;20130;-57
2023/10/06 06:42:05;;;;;;;7.93;3.72;;;11.10;99.90;;;;;;7296737;32;20723;-56
2023/10/06 06:46:07;;;;;;;9.57;3.70;;;11.30;99.90;;;;;;7296849;32;20138;-56
2023/10/06 06:50:13;;;;;;;8.48;3.92;;;11.50;99.90;;;;;;7299988;32;20157;-56
2023/10/06 06:54:15;;;;;;;10.60;3.50;;;11.60;99.90;;;;;;7297235;32;21027;-57
2023/10/06 06:58:17;;;;;;;7.10;3.30;;;11.70;99.90;;;;;;7300155;32;20552;-56
2023/10/06 07:02:20;;;;;;;8.85;3.50;;;11.80;99.90;;;;;;7299654;32;20616;-56
2023/10/06 07:06:25;;;;;;;10.23;3.55;;;12.00;99.90;;;;;;7297144;32;20327;-56
2023/10/06 07:10:26;;;;;;;7.18;3.65;;;12.10;99.90;;;;;;7292611;32;20146;-56
2023/10/06 07:14:29;;;;;;;7.47;3.40;;;12.20;99.90;;;;;;7295197;32;20112;-56
2023/10/06 07:18:32;;;;;;;10.93;3.65;;;12.30;99.90;;;;;;7299690;32;20139;-56
2023/10/06 07:22:34;;;;;;;8.63;4.18;;;12.40;99.90;;;;;;7297597;32;20843;-56
2023/10/06 07:26:36;;;;;;;15.13;3.87;;;12.50;99.90;;;;;;7296975;32;20209;-55
2023/10/06 07:30:38;;;;;;;7.07;3.37;;;12.60;99.90;;;;;;7295649;32;20115;-55
2023/10/06 07:34:40;;;;;;;8.15;3.42;;;12.60;99.90;;;;;;7302039;32;20222;-56
2023/10/06 07:38:43;;;;;;;12.00;3.83;;;12.60;99.90;;;;;;7302490;32;20164;-55
2023/10/06 07:42:47;;;;;;;9.18;3.95;;;12.60;99.90;;;;;;7301671;32;20136;-56
2023/10/06 07:46:52;;;;;;;5.87;3.28;;;12.70;99.90;;;;;;7298643;32;20132;-55
2023/10/06 07:51:06;;;;;;;11.07;3.90;;;12.80;99.90;;;;;;7300368;32;20134;-55
2023/10/06 07:55:12;;;;;;;12.25;4.05;;;12.80;99.90;;;;;;7301515;32;20122;-56
2023/10/06 07:59:14;;;;;;;12.45;3.67;;;12.90;99.90;;;;;;7295512;32;20183;-56
2023/10/06 08:03:16;;;;;;;8.77;3.10;;;13.00;99.90;;;;;;7302497;32;20594;-55
2023/10/06 08:07:23;;;;;;;5.40;3.35;;;12.90;99.90;;;;;;7301555;32;20656;-55
2023/10/06 08:11:25;;;;;;;;;;;13.00;99.90;;;;;;7300388;32;20263;-55
2023/10/06 08:15:28;;;;;;;9.32;3.50;;;13.00;99.90;;;;;;7300883;32;20021;-55
2023/10/06 08:19:29;;;;;;;8.77;3.62;;;13.10;99.90;;;;;;7303268;32;20107;-56
2023/10/06 08:23:32;;;;;;;9.93;3.10;;;13.10;99.90;;;;;;7299043;32;20204;-54
2023/10/06 08:27:34;;;;;;;8.38;3.15;;;13.20;99.90;;;;;;7294580;32;20438;-55
2023/10/06 08:31:36;;;;;;;7.43;3.08;;;13.30;99.90;;;;;;7298408;32;20627;-55
2023/10/06 08:35:40;;;;;;;8.25;2.95;;;13.40;99.90;;;;;;7299573;32;20112;-56
2023/10/06 08:39:44;;;;;;;10.70;3.83;;;13.60;99.90;;;;;;7298478;32;20676;-57
2023/10/06 08:43:48;;;;;;;9.25;3.50;;;13.80;99.90;;;;;;7301540;32;20136;-56
2023/10/06 08:47:53;;;;;;;6.93;3.15;;;14.00;99.90;;;;;;7299493;32;20112;-56
2023/10/06 08:51:59;;;;;;;9.98;3.25;;;14.10;99.90;;;;;;7296984;32;20663;-55
2023/10/06 08:56:05;;;;;;;15.20;4.03;;;14.30;99.90;;;;;;7298380;32;20138;-55
2023/10/06 09:00:07;;;;;;;9.48;3.20;;;14.70;99.90;;;;;;7292525;32;20223;-56
2023/10/06 09:04:09;;;;;;;9.77;3.00;;;14.90;99.90;;;;;;7299255;32;20134;-57
2023/10/06 09:08:15;;;;;;;10.55;3.00;;;15.00;99.90;;;;;;7301608;32;20181;-56
2023/10/06 09:12:26;;;;;;;6.80;3.10;;;15.20;99.90;;;;;;7295056;32;20161;-56
2023/10/06 09:16:47;;;;;;;11.12;2.95;;;15.50;99.90;;;;;;7300514;32;20124;-56
2023/10/06 09:20:50;;;;;;;5.65;2.45;;;15.70;99.90;;;;;;7296549;32;20501;-57
2023/10/06 09:25:04;;;;;;;6.03;2.15;;;15.90;99.90;;;;;;7291739;32;20291;-56
2023/10/06 09:29:09;;;;;;;8.77;2.72;;;16.10;99.90;;;;;;7291463;32;20845;-56
2023/10/06 09:33:11;;;;;;;7.78;2.62;;;16.70;99.90;;;;;;7294343;32;20108;-56
2023/10/06 09:37:20;;;;;;;7.07;2.58;;;17.30;99.90;;;;;;7291685;32;20218;-56
2023/10/06 09:41:26;;;;;;;7.97;2.30;;;17.90;99.90;;;;;;7295431;32;20225;-57
2023/10/06 09:45:30;;;;;;;6.65;2.35;;;19.00;99.90;;;;;;7299882;32;20109;-57
2023/10/06 09:49:35;;;;;;;9.65;2.53;;;19.80;99.90;;;;;;7295969;32;20808;-57
2023/10/06 09:53:38;;;;;;;6.95;1.85;;;20.30;99.90;;;;;;7297130;32;20195;-56
2023/10/06 09:57:43;;;;;;;9.60;2.30;;;20.10;99.90;;;;;;7294077;32;20286;-57
2023/10/06 10:01:46;;;;;;;8.77;2.03;;;20.00;99.90;;;;;;7297488;32;20466;-56
2023/10/06 10:05:49;;;;;;;7.18;2.28;;;20.30;99.90;;;;;;7294664;32;20219;-57
2023/10/06 10:09:52;;;;;;;10.02;2.70;;;20.00;99.90;;;;;;7292777;32;20282;-56
2023/10/06 10:14:03;;;;;;;6.62;2.55;;;19.40;99.90;;;;;;7297833;32;20165;-57
2023/10/06 10:18:26;;;;;;;5.97;2.15;;;19.10;99.90;;;;;;7297571;32;20107;-57
2023/10/06 10:22:28;;;;;;;7.60;2.35;;;18.90;99.90;;;;;;7294455;32;20123;-57
2023/10/06 10:26:33;;;;;;;6.72;2.35;;;18.90;99.90;;;;;;7293931;32;20108;-56
2023/10/06 10:30:56;;;;;;;9.00;2.30;;;18.80;99.90;;;;;;7297046;32;20730;-57
2023/10/06 10:35:12;;;;;;;4.97;2.15;;;18.70;99.90;;;;;;7291060;32;20480;-57
2023/10/06 10:39:18;;;;;;;10.65;2.12;;;18.60;99.90;;;;;;7292634;32;20205;-55
2023/10/06 10:43:21;;;;;;;7.18;2.10;;;18.60;99.90;;;;;;7298883;32;20226;-56
2023/10/06 10:47:23;;;;;;;5.30;2.00;;;18.50;99.90;;;;;;7294122;32;20159;-57
2023/10/06 10:51:27;;;;;;;13.18;2.58;;;18.40;99.90;;;;;;7299709;32;20237;-56
2023/10/06 10:55:31;;;;;;;9.73;2.45;;;18.40;99.90;;;;;;7294040;32;20124;-57
2023/10/06 11:00:11;;;;;;;6.20;2.20;;;18.40;99.90;;;;;;7297358;32;20509;-56
2023/10/06 11:04:18;;;;;;;5.55;2.47;;;18.20;99.90;;;;;;7299846;32;20239;-56
2023/10/06 11:08:20;;;;;;;6.07;1.92;;;18.30;99.90;;;;;;7300821;32;20111;-56
2023/10/06 11:12:24;;;;;;;12.13;2.50;;;18.20;99.90;;;;;;7297548;32;20807;-56
2023/10/06 11:16:28;;;;;;;8.98;2.20;;;18.20;99.90;;;;;;7296959;32;20215;-56
2023/10/06 11:20:35;;;;;;;5.12;1.90;;;18.20;99.90;;;;;;7298203;32;20112;-56
2023/10/06 11:24:39;;;;;;;5.50;1.60;;;18.30;99.90;;;;;;7295860;32;20131;-56
2023/10/06 11:28:41;;;;;;;8.90;2.58;;;18.30;99.90;;;;;;7301016;32;20238;-57
2023/10/06 11:32:43;;;;;;;10.57;2.37;;;18.40;99.90;;;;;;7298395;32;20112;-56
2023/10/06 11:36:46;;;;;;;9.90;2.40;;;18.30;99.90;;;;;;7300329;32;20112;-57
2023/10/06 11:40:47;;;;;;;5.62;2.22;;;18.40;99.90;;;;;;7300605;32;20124;-55
2023/10/06 11:44:52;;;;;;;7.47;2.50;;;18.60;99.90;;;;;;7302438;32;20228;-56
2023/10/06 11:49:09;;;;;;;8.30;2.37;;;18.70;99.90;;;;;;7291787;32;20189;-55
2023/10/06 11:53:20;;;;;;;8.40;2.30;;;18.90;99.90;;;;;;7297145;32;20126;-56
2023/10/06 11:57:53;;;;;;;7.60;2.95;;;19.00;99.90;;;;;;7295411;32;20747;-55
2023/10/06 12:02:05;;;;;;;7.72;2.78;;;19.10;99.90;;;;;;7295857;32;20148;-55
2023/10/06 12:06:11;;;;;;;8.35;2.37;;;19.20;99.90;;;;;;7300909;32;20140;-56
2023/10/06 12:10:17;;;;;;;8.23;3.15;;;19.00;99.90;;;;;;7292992;32;20353;-55
2023/10/06 12:14:20;;;;;;;5.50;2.50;;;19.00;99.90;;;;;;7293317;32;20108;-56
2023/10/06 12:18:22;;;;;;;10.05;2.72;;;19.00;99.90;;;;;;7298167;32;20139;-55
2023/10/06 12:22:24;;;;;;;7.37;2.37;;;19.10;99.90;;;;;;7297857;32;20155;-55
2023/10/06 12:26:46;;;;;;;7.72;2.72;;;19.20;99.90;;;;;;7292670;32;20105;-54
2023/10/06 12:30:48;;;;;;;9.83;3.10;;;19.10;99.90;;;;;;7300521;32;20115;-55
2023/10/06 12:34:50;;;;;;;9.77;2.90;;;19.10;99.90;;;;;;7293857;32;20672;-55
2023/10/06 12:38:52;;;;;;;8.82;2.67;;;19.00;99.90;;;;;;7295851;32;20166;-55
2023/10/06 12:42:54;;;;;;;8.05;2.62;;;19.00;99.90;;;;;;7303379;32;20564;-55
2023/10/06 12:46:56;;;;;;;9.90;2.40;;;19.10;99.90;;;;;;7302959;32;20519;-56
2023/10/06 12:50:58;;;;;;;9.20;2.62;;;18.90;99.90;;;;;;7302819;32;20112;-55
2023/10/06 12:55:05;;;;;;;7.47;2.22;;;19.00;99.90;;;;;;7302434;32;20214;-56
2023/10/06 12:59:07;;;;;;;8.82;2.90;;;18.70;99.90;;;;;;7299993;32;20207;-55
2023/10/06 13:03:15;;;;;;;8.63;2.80;;;18.60;99.90;;;;;;7300312;32;20134;-55
2023/10/06 13:07:18;;;;;;;12.60;2.55;;;18.80;99.90;;;;;;7297142;32;20153;-54
2023/10/06 13:11:21;;;;;;;9.85;2.62;;;19.10;99.90;;;;;;7302316;32;20103;-54
2023/10/06 13:15:23;;;;;;;6.28;2.28;;;19.30;99.90;;;;;;7301976;32;20108;-55
2023/10/06 13:19:25;;;;;;;11.23;2.80;;;19.10;99.90;;;;;;7296640;32;20169;-55
2023/10/06 13:23:27;;;;;;;8.60;2.78;;;19.10;99.90;;;;;;7300788;32;20286;-55
2023/10/06 13:27:29;;;;;;;9.48;2.30;;;19.20;99.90;;;;;;7299947;32;20181;-58
2023/10/06 13:31:31;;;;;;;7.37;2.78;;;19.30;99.90;;;;;;7298105;32;20251;-57
2023/10/06 13:35:33;;;;;;;7.25;2.40;;;19.20;99.90;;;;;;7298463;32;20280;-57
2023/10/06 13:39:35;;;;;;;5.28;2.08;;;19.10;99.90;;;;;;7295357;32;20214;-57
2023/10/06 13:43:37;;;;;;;7.87;2.03;;;18.90;99.90;;;;;;7297019;32;20258;-57
2023/10/06 13:47:40;;;;;;;7.37;2.42;;;18.80;99.90;;;;;;7295745;32;20292;-56
2023/10/06 13:51:43;;;;;;;9.35;2.25;;;18.80;99.90;;;;;;7300126;32;20165;-57
2023/10/06 13:55:45;;;;;;;7.45;2.50;;;18.70;99.90;;;;;;7292119;32;20550;-57
2023/10/06 13:59:47;;;;;;;6.90;2.47;;;18.90;99.90;;;;;;7293684;32;20245;-55
2023/10/06 14:03:48;;;;;;;6.37;2.25;;;19.10;99.90;;;;;;7297576;32;20165;-55
2023/10/06 14:07:50;;;;;;;6.47;2.37;;;19.20;99.90;;;;;;7297111;32;20138;-56
2023/10/06 14:11:52;;;;;;;4.93;2.25;;;19.30;99.90;;;;;;7289821;32;20579;-54
2023/10/06 14:15:54;;;;;;;5.68;2.65;;;19.40;99.90;;;;;;7298759;32;20230;-54
2023/10/06 14:19:57;;;;;;;6.57;2.40;;;19.50;99.90;;;;;;7296885;32;20297;-55
2023/10/06 14:24:01;;;;;;;10.10;2.72;;;19.70;99.90;;;;;;7290179;32;20519;-56
2023/10/06 14:28:09;;;;;;;9.68;3.30;;;19.80;99.90;;;;;;7294688;32;20108;-55
2023/10/06 14:32:18;;;;;;;6.50;2.28;;;19.70;99.90;;;;;;7297991;32;20597;-55
2023/10/06 14:49:05;;;;;;;8.15;2.72;;;19.30;99.90;;;;;;7297663;32;20490;-58
2023/10/06 14:53:07;;;;;;;5.50;2.37;;;19.20;99.90;;;;;;7296133;32;20215;-57
2023/10/06 14:57:09;;;;;;;12.57;3.03;;;19.10;99.90;;;;;;7296912;32;20525;-57
2023/10/06 15:01:12;;;;;;;6.97;2.75;;;19.00;99.90;;;;;;7301069;32;20128;-58
2023/10/06 15:05:15;;;;;;;11.48;2.67;;;18.90;99.90;;;;;;7293897;32;20116;-58
2023/10/06 15:09:19;;;;;;;11.88;3.15;;;18.80;99.90;;;;;;7295287;32;20191;-58
2023/10/06 15:13:22;;;;;;;8.05;2.83;;;18.80;99.90;;;;;;7296109;32;20245;-59
2023/10/06 15:17:23;;;;;;;7.37;2.30;;;18.80;99.90;;;;;;7292690;32;20494;-57
2023/10/06 15:21:25;;;;;;;7.30;2.67;;;18.80;99.90;;;;;;7291951;32;20128;-57
2023/10/06 15:25:30;;;;;;;9.93;3.10;;;18.70;99.90;;;;;;7296274;32;20143;-58
2023/10/06 15:29:32;;;;;;;6.65;2.62;;;18.70;99.90;;;;;;7289420;32;20511;-58
2023/10/06 15:33:33;;;;;;;9.60;3.12;;;18.60;99.90;;;;;;7294815;32;20578;-58
2023/10/06 15:37:37;;;;;;;7.85;2.65;;;18.50;99.90;;;;;;7290259;32;20484;-57
2023/10/06 15:41:39;;;;;;;9.40;2.78;;;18.60;99.90;;;;;;7288091;32;20479;-58
2023/10/06 15:45:41;;;;;;;7.37;2.90;;;18.50;99.90;;;;;;7289209;32;20588;-58
2023/10/06 15:49:43;;;;;;;8.55;2.45;;;18.50;99.90;;;;;;7298814;32;20246;-57
2023/10/06 15:53:45;;;;;;;7.43;3.05;;;18.40;99.90;;;;;;7300494;32;20181;-58
2023/10/06 15:57:47;;;;;;;9.70;2.60;;;18.30;99.90;;;;;;7302217;32;20222;-58
2023/10/06 16:01:49;;;;;;;10.00;3.20;;;18.20;99.90;;;;;;7299689;32;20221;-58
2023/10/06 16:05:52;;;;;;;6.18;2.50;;;18.20;99.90;;;;;;7302950;32;20151;-58
2023/10/06 16:09:53;;;;;;;8.50;3.58;;;18.10;99.90;;;;;;7292916;32;20112;-58
2023/10/06 16:13:55;;;;;;;8.88;2.62;;;18.00;99.90;;;;;;7294204;32;20239;-57
2023/10/06 16:17:57;;;;;;;6.72;2.95;;;17.90;99.90;;;;;;7300421;32;20666;-57
2023/10/06 16:22:00;;;;;;;5.03;2.42;;;17.90;99.90;;;;;;7301236;32;20486;-59
2023/10/06 16:26:03;;;;;;;8.60;2.85;;;17.90;99.90;;;;;;7300347;32;20135;-58
2023/10/06 16:30:07;;;;;;;5.62;2.60;;;17.70;99.90;;;;;;7298683;32;20115;-57
2023/10/06 16:34:09;;;;;;;9.07;3.05;;;17.60;99.90;;;;;;7301750;32;20108;-58
2023/10/06 16:38:11;;;;;;;8.23;2.87;;;17.60;99.90;;;;;;7299244;32;20116;-58
2023/10/06 16:42:13;;;;;;;10.43;2.85;;;17.60;99.90;;;;;;7294210;32;20257;-58
2023/10/06 16:46:16;;;;;;;10.38;2.85;;;17.60;99.90;;;;;;7298531;32;20112;-57
2023/10/06 16:50:18;;;;;;;5.82;2.20;;;17.60;99.90;;;;;;7303195;32;20154;-57
2023/10/06 16:54:20;;;;;;;10.60;2.60;;;17.50;99.90;;;;;;7297212;32;20732;-58
2023/10/06 16:58:22;;;;;;;7.53;2.80;;;17.50;99.90;;;;;;7299657;32;20116;-57
2023/10/06 17:02:24;;;;;;;7.93;2.90;;;17.30;99.90;;;;;;7295663;32;20169;-57
2023/10/06 17:06:26;;;;;;;8.38;2.80;;;17.30;99.90;;;;;;7299133;32;20235;-58
2023/10/06 17:10:28;;;;;;;7.65;2.42;;;17.20;99.90;;;;;;7299074;32;20136;-57
2023/10/06 17:14:30;;;;;;;8.68;2.97;;;17.10;99.90;;;;;;7298526;32;20126;-57
2023/10/06 17:18:33;;;;;;;7.05;3.30;;;17.10;99.90;;;;;;7291657;32;20210;-58
2023/10/06 17:22:36;;;;;;;7.95;2.65;;;17.10;99.90;;;;;;7292799;32;20116;-57
2023/10/06 17:26:38;;;;;;;7.82;2.75;;;17.00;99.90;;;;;;7292961;32;20226;-55
2023/10/06 17:30:39;;;;;;;10.85;2.62;;;16.90;99.90;;;;;;7298599;32;20526;-57
2023/10/06 17:34:42;;;;;;;5.22;2.97;;;17.00;99.90;;;;;;7300488;32;20206;-57
2023/10/06 17:38:44;;;;;;;9.02;2.72;;;16.80;99.90;;;;;;7298727;32;20604;-56
2023/10/06 17:42:48;;;;;;;8.45;2.65;;;16.70;99.90;;;;;;7299832;32;20096;-56
2023/10/06 17:46:49;;;;;;;8.73;3.00;;;16.70;99.90;;;;;;7297006;32;20142;-57
2023/10/06 17:50:51;;;;;;;14.13;3.15;;;16.60;99.90;;;;;;7300631;32;20211;-57
2023/10/06 17:54:53;;;;;;;5.87;2.58;;;16.60;99.90;;;;;;7298502;32;20121;-56
2023/10/06 17:58:55;;;;;;;9.15;2.45;;;16.40;99.90;;;;;;7294282;32;20488;-56
2023/10/06 18:02:57;;;;;;;10.07;2.80;;;16.50;99.90;;;;;;7295149;32;20545;-56
2023/10/06 18:06:59;;;;;;;6.78;2.80;;;16.40;99.90;;;;;;7296429;32;20203;-57
2023/10/06 18:11:02;;;;;;;5.97;2.40;;;16.30;99.90;;;;;;7292897;32;20483;-57
2023/10/06 18:15:05;;;;;;;8.70;3.33;;;16.20;99.90;;;;;;7294727;32;20532;-57
2023/10/06 18:19:07;;;;;;;10.98;2.67;;;16.20;99.90;;;;;;7295717;32;20652;-57
2023/10/06 18:23:11;;;;;;;6.45;2.78;;;16.10;99.90;;;;;;7297417;32;20104;-56
2023/10/06 18:27:12;;;;;;;7.85;2.85;;;16.00;99.90;;;;;;7295840;32;20242;-56
2023/10/06 18:31:15;;;;;;;8.27;2.58;;;16.00;99.90;;;;;;7292531;32;20435;-56
2023/10/06 18:35:17;;;;;;;8.63;2.45;;;15.90;99.90;;;;;;7289980;32;20176;-56
2023/10/06 18:39:21;;;;;;;7.47;2.50;;;15.80;99.90;;;;;;7288432;32;20142;-57
2023/10/06 18:43:24;;;;;;;6.20;2.78;;;15.70;99.90;;;;;;7285722;32;20128;-56
2023/10/06 18:47:30;;;;;;;6.22;2.60;;;15.60;99.90;;;;;;7292656;32;20108;-56
2023/10/06 18:51:32;;;;;;;7.30;2.90;;;15.40;99.90;;;;;;7290748;32;20115;-56
2023/10/06 18:55:34;;;;;;;7.57;3.03;;;15.30;99.90;;;;;;7293411;32;20179;-58
2023/10/06 18:59:35;;;;;;;7.37;3.03;;;15.20;99.90;;;;;;7289159;32;20964;-56
2023/10/06 19:03:39;;;;;;;7.10;3.03;;;15.20;99.90;;;;;;7292875;32;20965;-58
2023/10/06 19:07:42;;;;;;;10.00;2.87;;;15.10;99.90;;;;;;7288622;32;20127;-57
2023/10/06 19:11:44;;;;;;;9.38;2.95;;;15.10;99.90;;;;;;7292941;32;20145;-58
2023/10/06 19:15:47;;;;;;;8.43;3.10;;;15.10;99.90;;;;;;7296996;32;20477;-57
2023/10/06 19:19:51;;;;;;;6.35;2.90;;;15.00;99.90;;;;;;7293650;32;20560;-57
2023/10/06 19:23:53;;;;;;;10.82;2.87;;;14.90;99.90;;;;;;7296179;32;20111;-56
2023/10/06 19:27:54;;;;;;;9.07;4.03;;;14.90;99.90;;;;;;7298791;32;20286;-56
2023/10/06 19:31:57;;;;;;;8.00;3.10;;;14.90;99.90;;;;;;7297185;32;20173;-57
2023/10/06 19:36:00;;;;;;;10.05;3.42;;;14.90;99.90;;;;;;7300408;32;20168;-57
2023/10/06 19:40:02;;;;;;;7.97;3.12;;;14.80;99.90;;;;;;7302502;32;20093;-56
2023/10/06 19:44:04;;;;;;;7.65;2.65;;;14.70;99.90;;;;;;7298297;32;20174;-56
2023/10/06 19:48:06;;;;;;;8.40;3.25;;;14.70;99.90;;;;;;7305063;32;20186;-56
2023/10/06 19:52:08;;;;;;;8.30;3.33;;;14.60;99.90;;;;;;7303950;32;20411;-56
2023/10/06 19:56:10;;;;;;;9.80;3.15;;;14.50;99.90;;;;;;7299269;32;20183;-57
2023/10/06 20:00:12;;;;;;;8.70;3.65;;;14.60;99.90;;;;;;7302560;32;20169;-56
2023/10/06 20:04:14;;;;;;;9.95;3.45;;;14.50;99.90;;;;;;7300207;32;20116;-56
2023/10/06 20:08:16;;;;;;;8.27;3.08;;;14.30;99.90;;;;;;7301322;32;20238;-56
2023/10/06 20:12:18;;;;;;;9.48;3.53;;;14.40;99.90;;;;;;7297472;32;20210;-57
2023/10/06 20:16:20;;;;;;;7.75;2.85;;;14.30;99.90;;;;;;7298384;32;20138;-56
2023/10/06 20:20:22;;;;;;;12.50;3.60;;;14.30;99.90;;;;;;7300451;32;20147;-56
2023/10/06 20:24:24;;;;;;;7.25;3.47;;;14.20;99.90;;;;;;7299880;32;20503;-56
2023/10/06 20:28:26;;;;;;;10.02;3.42;;;14.20;99.90;;;;;;7298086;32;20120;-56
2023/10/06 20:32:28;;;;;;;7.87;3.12;;;14.20;99.90;;;;;;7299851;32;20112;-56
2023/10/06 20:36:30;;;;;;;7.90;2.58;;;14.00;99.90;;;;;;7294933;32;20194;-56
2023/10/06 20:40:34;;;;;;;7.62;3.05;;;13.90;99.90;;;;;;7295339;32;20490;-57
2023/10/06 20:44:35;;;;;;;9.80;3.53;;;13.90;99.90;;;;;;7297235;32;20117;-56
2023/10/06 20:48:37;;;;;;;10.40;3.50;;;13.90;99.90;;;;;;7289521;32;20119;-57
2023/10/06 20:52:43;;;;;;;8.23;2.80;;;13.90;99.90;;;;;;7298069;32;20124;-56
2023/10/06 20:56:44;;;;;;;10.18;3.90;;;13.90;99.90;;;;;;7294413;32;20116;-57
2023/10/06 21:00:46;;;;;;;8.88;3.40;;;13.80;99.90;;;;;;7297333;32;20108;-57
2023/10/06 21:04:49;;;;;;;8.02;3.35;;;13.70;99.90;;;;;;7299425;32;20225;-57
2023/10/06 21:08:55;;;;;;;9.68;4.00;;;13.60;99.90;;;;;;7300952;32;20132;-57
2023/10/06 21:12:57;;;;;;;9.60;3.62;;;13.60;99.90;;;;;;7295050;32;20215;-57
2023/10/06 21:16:59;;;;;;;8.18;3.22;;;13.50;99.90;;;;;;7298171;32;20300;-57
2023/10/06 21:21:01;;;;;;;8.60;3.03;;;13.40;99.90;;;;;;7289931;32;20135;-56